world map with LPT marked

LPT - Airport

This information may not be accurate or current and is not valid for navigation or flight planning. No warranty of fitness for any purpose is made or implied.

flag of Thailand

Donate via PayPal

Additional information is available on the NEW Great Circle Mapper

Location
City:  Lampang, Lampang, Thailand
ICAO / IATA:VTCL / LPT

Details
Type:Airport (Aerodrome, Airfield)
Latitude:18°16'15"N (18.270933)
Longitude:99°30'15"E (99.504167)
Datum:WGS 1984
Elevation:811 ft (247 m)
Runways:1
Longest:6465 × 95 ft (1971 × 29 m)

Time
Timezone:UTC+7 (DST+9)
Local Time:

Weather
METAR:VTCL  120700Z VRB02KT 9999 BKN025 OVC100 27/22 Q1015 NOSIG
TAF:VTCL  120500Z 1206/1306 14005KT 9999 BKN030 TEMPO 1206/1212 VRB15G25KT 5000 TSRA

Related Locations
Nearby:
Farthest:APE: 12038 mi / 19373 km
San Juan Aposento, ICA, PE

Find:

   beyond  
but within

Other Information
Maps:
Sources:

  


 


Great Circle Mapper   Great Circle Mapper
Great Circle Mapper FAQ   Great Circle Mapper FAQ
  Karl's Home Page
KLSē   KLSē Home
   GC on Facebook
Airlines of the World   Airlines of the World
Donate via PayPal


Copyright © 2004-2018, Karl L. Swartz. All rights reserved.
All trademarks mentioned herein belong to their respective owners.

Please see credits for attribution and copyright information.

Karl Swartz <karl@kls2.com>
  Powered by FreeBSD
Valid HTML 4.01!
Labeled with ICRA
hCard Microformat
Geo Microformat